WXM80 ListenWXM80 Stop

You find our weather info also at:

UK Metoffice

WeatherCloud

Weather Underground

Northeastern Weather Network

AWEKAS

Citizen Weather Observer Program (CWOP)

HAMweather, WeatherForYou, PWS Weather


Weather Underground History page Text

Daily Summary for February 09, 2018 Units:  English    Metric   Both
« Previous Day
Next Day »
Daily Weekly Monthly Yearly Custom
  High: Low: Average:
Temperature: TemperatureF °F 24.3 °F 31.1 °F
Dew Point: DewpointF °F 15.8 °F 21.6 °F
Humidity: Humidity % 48 % 68 %
Wind Speed: WindSpeedMPH mph 0.0 mph 1.9 mph
Wind Gust: WindSpeedGustMPH mph - -
Wind:- - SW
Pressure: PressureIn in 30.16 in -
Precipitation: 0.00 in    
Historical Graphs
 
 
Tabular Data for February 09, 2018
Time Temperature Dew Point Pressure Wind Wind Speed Wind Gust Humidity Rainfall Rate (Hourly)
TemperatureF °F DewpointF °F PressureIn in Calm     Humidity % HourlyPrecipIn in
00:01 24.4 °F 17.3 °F 30.20 in West 0.7 mph 3.0 mph 74 % 0.00 in
00:06 24.3 °F 17.2 °F 30.20 in West 0.8 mph 2.3 mph 74 % 0.00 in
00:11 24.3 °F 17.2 °F 30.20 in West 1.8 mph 3.0 mph 74 % 0.00 in
00:17 24.3 °F 17.5 °F 30.20 in WSW 1.5 mph 3.5 mph 75 % 0.00 in
00:22 24.5 °F 17.4 °F 30.21 in West 2.8 mph 11.5 mph 74 % 0.00 in
00:27 24.9 °F 17.5 °F 30.21 in WSW 3.6 mph 8.1 mph 73 % 0.00 in
00:32 25.3 °F 17.5 °F 30.21 in West 1.9 mph 6.9 mph 72 % 0.00 in
00:37 25.7 °F 17.6 °F 30.20 in WNW 3.3 mph 10.4 mph 71 % 0.00 in
00:42 26.0 °F 17.9 °F 30.21 in West 3.1 mph 9.2 mph 71 % 0.00 in
00:47 26.3 °F 17.8 °F 30.21 in West 4.3 mph 5.8 mph 70 % 0.00 in
00:52 26.6 °F 17.8 °F 30.21 in West 3.6 mph 5.8 mph 69 % 0.00 in
00:57 26.8 °F 18.0 °F 30.21 in West 4.4 mph 9.2 mph 69 % 0.00 in
01:02 26.9 °F 18.1 °F 30.21 in West 2.9 mph 6.9 mph 69 % 0.00 in
01:07 27.0 °F 17.8 °F 30.22 in WNW 2.1 mph 7.0 mph 68 % 0.00 in
01:12 27.1 °F 17.9 °F 30.22 in WNW 5.3 mph 8.1 mph 68 % 0.00 in
01:17 27.2 °F 18.0 °F 30.22 in West 3.0 mph 5.8 mph 68 % 0.00 in
01:22 27.2 °F 17.7 °F 30.22 in WNW 3.4 mph 6.9 mph 67 % 0.00 in
01:27 27.3 °F 17.8 °F 30.22 in West 6.2 mph 6.2 mph 67 % 0.00 in
01:32 27.3 °F 17.8 °F 30.23 in West 3.1 mph 5.8 mph 67 % 0.00 in
01:37 27.4 °F 17.9 °F 30.23 in WSW 1.4 mph 9.2 mph 67 % 0.00 in
01:43 27.3 °F 17.8 °F 30.23 in WNW 3.4 mph 4.0 mph 67 % 0.00 in
01:48 27.3 °F 17.8 °F 30.24 in WSW 2.4 mph 8.1 mph 67 % 0.00 in
01:53 27.3 °F 17.8 °F 30.23 in WSW 1.2 mph 3.5 mph 67 % 0.00 in
01:58 27.3 °F 17.8 °F 30.24 in WSW 4.8 mph 8.1 mph 67 % 0.00 in
02:03 27.3 °F 17.8 °F 30.24 in West 2.3 mph 4.6 mph 67 % 0.00 in
02:08 27.2 °F 17.7 °F 30.25 in West 1.7 mph 3.5 mph 67 % 0.00 in
02:13 27.2 °F 17.7 °F 30.25 in West 5.2 mph 10.4 mph 67 % 0.00 in
02:18 27.2 °F 17.7 °F 30.25 in West 4.8 mph 9.2 mph 67 % 0.00 in
02:19 27.2 °F 17.7 °F 30.25 in NW 4.3 mph 9.2 mph 67 % 0.00 in
02:24 27.2 °F 17.7 °F 30.25 in NNW 2.9 mph 5.8 mph 67 % 0.00 in
02:29 27.2 °F 17.3 °F 30.25 in West 4.4 mph 6.9 mph 66 % 0.00 in
02:34 27.2 °F 17.3 °F 30.25 in WNW 3.6 mph 9.2 mph 66 % 0.00 in
02:39 27.2 °F 17.3 °F 30.26 in West 2.9 mph 5.8 mph 66 % 0.00 in
02:44 27.2 °F 17.3 °F 30.26 in West 4.4 mph 6.9 mph 66 % 0.00 in
02:49 27.3 °F 17.4 °F 30.26 in NW 5.0 mph 9.2 mph 66 % 0.00 in
02:54 27.3 °F 17.4 °F 30.26 in WNW 3.0 mph 10.4 mph 66 % 0.00 in
02:59 27.3 °F 17.1 °F 30.26 in West 1.5 mph 3.5 mph 65 % 0.00 in
03:04 27.3 °F 17.4 °F 30.26 in SW 3.5 mph 5.0 mph 66 % 0.00 in
03:10 27.3 °F 17.4 °F 30.26 in SW 6.7 mph 11.5 mph 66 % 0.00 in
03:15 27.4 °F 17.2 °F 30.26 in WNW 3.7 mph 9.2 mph 65 % 0.00 in
03:20 27.4 °F 17.2 °F 30.26 in WSW 4.1 mph 6.9 mph 65 % 0.00 in
03:25 27.4 °F 17.2 °F 30.26 in West 5.1 mph 7.0 mph 65 % 0.00 in
03:30 27.5 °F 17.3 °F 30.27 in WSW 4.4 mph 5.8 mph 65 % 0.00 in
03:35 27.4 °F 17.5 °F 30.27 in WNW 5.6 mph 10.4 mph 66 % 0.00 in
03:40 27.4 °F 17.5 °F 30.27 in West 3.3 mph 6.9 mph 66 % 0.00 in
03:45 27.4 °F 17.5 °F 30.27 in WNW 2.4 mph 4.6 mph 66 % 0.00 in
03:50 27.3 °F 17.8 °F 30.26 in WNW 4.2 mph 9.2 mph 67 % 0.00 in
03:55 27.3 °F 17.4 °F 30.26 in WNW 1.3 mph 4.0 mph 66 % 0.00 in
04:00 27.2 °F 17.3 °F 30.26 in West 1.2 mph 2.3 mph 66 % 0.00 in
04:05 27.1 °F 17.6 °F 30.26 in WNW 1.9 mph 3.5 mph 67 % 0.00 in
04:10 27.1 °F 17.9 °F 30.26 in WSW 0.3 mph 2.0 mph 68 % 0.00 in
04:16 27.0 °F 17.8 °F 30.26 in West 1.0 mph 3.0 mph 68 % 0.00 in
04:21 27.0 °F 17.8 °F 30.26 in West 1.0 mph 6.0 mph 68 % 0.00 in
04:26 26.9 °F 18.1 °F 30.26 in WNW 2.0 mph 5.0 mph 69 % 0.00 in
04:31 26.8 °F 18.3 °F 30.27 in West 1.8 mph 4.6 mph 70 % 0.00 in
04:36 26.7 °F 18.2 °F 30.27 in WSW 0.5 mph 3.5 mph 70 % 0.00 in
04:41 26.7 °F 18.2 °F 30.27 in West 0.3 mph 3.5 mph 70 % 0.00 in
04:46 26.6 °F 18.1 °F 30.27 in West 1.5 mph 3.5 mph 70 % 0.00 in
04:51 26.6 °F 18.1 °F 30.27 in NW 3.5 mph 5.8 mph 70 % 0.00 in
04:56 26.5 °F 18.4 °F 30.27 in WNW 1.6 mph 3.5 mph 71 % 0.00 in
05:01 26.4 °F 18.3 °F 30.26 in Calm   2.3 mph 71 % 0.00 in
05:06 26.4 °F 18.3 °F 30.27 in WNW 0.6 mph 3.5 mph 71 % 0.00 in
05:11 26.3 °F 18.2 °F 30.26 in WNW 0.1 mph 2.3 mph 71 % 0.00 in
05:16 26.3 °F 18.2 °F 30.26 in Calm   3.5 mph 71 % 0.00 in
05:21 26.2 °F 18.1 °F 30.26 in NW 0.2 mph 1.2 mph 71 % 0.00 in
05:26 26.2 °F 18.1 °F 30.26 in WNW 3.4 mph 4.6 mph 71 % 0.00 in
05:31 26.1 °F 18.0 °F 30.25 in WNW 2.0 mph 5.8 mph 71 % 0.00 in
05:36 26.1 °F 17.6 °F 30.26 in NW 3.8 mph 3.8 mph 70 % 0.00 in
05:41 26.1 °F 18.0 °F 30.25 in NW 0.9 mph 2.0 mph 71 % 0.00 in
05:46 26.1 °F 18.0 °F 30.26 in NNW 0.8 mph 3.5 mph 71 % 0.00 in
05:51 26.1 °F 18.0 °F 30.27 in NW 1.7 mph 4.6 mph 71 % 0.00 in
05:57 26.1 °F 18.0 °F 30.27 in WNW 2.2 mph 3.5 mph 71 % 0.00 in
06:02 26.1 °F 17.6 °F 30.26 in NNW 0.2 mph 2.3 mph 70 % 0.00 in
06:07 26.1 °F 17.6 °F 30.26 in WNW 2.9 mph 3.5 mph 70 % 0.00 in
06:12 26.0 °F 17.9 °F 30.25 in NNW 1.4 mph 3.5 mph 71 % 0.00 in
06:17 26.0 °F 17.9 °F 30.25 in Calm   1.2 mph 71 % 0.00 in
06:22 25.9 °F 17.8 °F 30.26 in NW 1.1 mph 3.5 mph 71 % 0.00 in
06:27 25.9 °F 17.5 °F 30.26 in NW 0.6 mph 2.3 mph 70 % 0.00 in
06:32 25.8 °F 17.4 °F 30.27 in NW 0.9 mph 3.5 mph 70 % 0.00 in
06:37 25.8 °F 17.4 °F 30.27 in NW 0.7 mph 3.5 mph 70 % 0.00 in
06:42 25.8 °F 17.4 °F 30.27 in NW 0.8 mph 2.3 mph 70 % 0.00 in
06:47 25.7 °F 17.3 °F 30.28 in WNW 2.0 mph 3.5 mph 70 % 0.00 in
06:52 25.7 °F 17.3 °F 30.28 in WSW 1.9 mph 3.5 mph 70 % 0.00 in
06:57 25.6 °F 17.2 °F 30.28 in Calm   3.5 mph 70 % 0.00 in
07:02 25.6 °F 17.2 °F 30.29 in Calm   1.2 mph 70 % 0.00 in
07:07 25.6 °F 17.5 °F 30.30 in West 0.6 mph 2.0 mph 71 % 0.00 in
07:12 25.5 °F 17.7 °F 30.30 in Calm   2.3 mph 72 % 0.00 in
07:17 25.4 °F 17.6 °F 30.30 in West 0.4 mph 2.3 mph 72 % 0.00 in
07:22 25.3 °F 17.9 °F 30.30 in Calm     73 % 0.00 in
07:28 25.3 °F 17.9 °F 30.31 in West 1.6 mph 2.3 mph 73 % 0.00 in
07:33 25.2 °F 18.1 °F 30.31 in Calm     74 % 0.00 in
07:38 25.2 °F 18.1 °F 30.31 in West 1.1 mph 3.5 mph 74 % 0.00 in
07:43 25.2 °F 18.4 °F 30.31 in West 0.7 mph 2.3 mph 75 % 0.00 in
07:48 25.2 °F 18.4 °F 30.31 in West 0.9 mph 2.3 mph 75 % 0.00 in
07:53 25.2 °F 18.4 °F 30.31 in West 0.3 mph 1.2 mph 75 % 0.00 in
07:58 25.3 °F 18.5 °F 30.32 in West 1.4 mph 3.5 mph 75 % 0.00 in
08:03 25.4 °F 18.6 °F 30.32 in Calm     75 % 0.00 in
08:08 25.5 °F 18.7 °F 30.33 in West 0.7 mph 2.3 mph 75 % 0.00 in
08:13 25.7 °F 18.9 °F 30.33 in West 0.5 mph 2.0 mph 75 % 0.00 in
08:18 26.0 °F 18.8 °F 30.33 in WSW 0.7 mph 3.5 mph 74 % 0.00 in
08:23 26.2 °F 18.7 °F 30.33 in WSW 0.4 mph 2.3 mph 73 % 0.00 in
08:28 26.5 °F 18.7 °F 30.33 in Calm   1.2 mph 72 % 0.00 in
08:33 26.9 °F 19.1 °F 30.33 in WSW 0.1 mph 1.2 mph 72 % 0.00 in
08:38 27.2 °F 19.4 °F 30.32 in Calm     72 % 0.00 in
08:43 27.6 °F 19.4 °F 30.32 in WSW 0.3 mph 1.0 mph 71 % 0.00 in
08:49 28.0 °F 19.1 °F 30.32 in WSW 0.3 mph 1.2 mph 69 % 0.00 in
08:54 28.5 °F 18.9 °F 30.32 in WSW 0.1 mph 3.5 mph 67 % 0.00 in
08:59 29.1 °F 18.8 °F 30.32 in Calm     65 % 0.00 in
09:04 29.7 °F 19.4 °F 30.32 in West 0.5 mph 2.3 mph 65 % 0.00 in
09:09 30.3 °F 19.6 °F 30.32 in Calm     64 % 0.00 in
09:14 30.7 °F 19.2 °F 30.32 in NW 1.1 mph 3.5 mph 62 % 0.00 in
09:19 31.0 °F 18.7 °F 30.32 in NW 2.2 mph 3.5 mph 60 % 0.00 in
09:24 31.2 °F 18.9 °F 30.32 in West 0.9 mph 3.5 mph 60 % 0.00 in
09:29 31.2 °F 18.1 °F 30.32 in West 2.1 mph 3.5 mph 58 % 0.00 in
09:34 31.3 °F 18.2 °F 30.32 in SSW 1.2 mph 3.5 mph 58 % 0.00 in
09:39 31.4 °F 18.3 °F 30.32 in SSW 0.1 mph 1.2 mph 58 % 0.00 in
09:44 31.3 °F 17.8 °F 30.32 in WSW 1.1 mph 3.0 mph 57 % 0.00 in
09:49 31.2 °F 17.3 °F 30.32 in WSW 0.7 mph 1.2 mph 56 % 0.00 in
09:54 31.2 °F 17.7 °F 30.32 in WSW 1.2 mph 3.5 mph 57 % 0.00 in
09:59 31.2 °F 17.7 °F 30.33 in WSW 1.0 mph 4.0 mph 57 % 0.00 in
10:04 31.1 °F 16.8 °F 30.33 in West 1.9 mph 3.5 mph 55 % 0.00 in
10:09 31.1 °F 15.9 °F 30.32 in Calm   2.3 mph 53 % 0.00 in
10:14 31.0 °F 16.3 °F 30.32 in Calm     54 % 0.00 in
10:19 31.0 °F 15.8 °F 30.33 in Calm     53 % 0.00 in
10:24 31.0 °F 16.7 °F 30.33 in West 0.1 mph   55 % 0.00 in
10:29 31.0 °F 16.7 °F 30.33 in West 0.7 mph 2.3 mph 55 % 0.00 in
10:35 31.0 °F 17.1 °F 30.33 in Calm   1.2 mph 56 % 0.00 in
10:40 31.0 °F 17.1 °F 30.33 in Calm     56 % 0.00 in
10:45 31.4 °F 17.5 °F 30.33 in West 1.0 mph 3.5 mph 56 % 0.00 in
10:50 31.7 °F 17.4 °F 30.33 in West 3.0 mph 5.0 mph 55 % 0.00 in
10:55 32.3 °F 17.5 °F 30.33 in WSW 3.1 mph 5.0 mph 54 % 0.00 in
11:00 32.6 °F 17.3 °F 30.33 in WNW 0.4 mph 1.2 mph 53 % 0.00 in
11:05 33.2 °F 18.8 °F 30.33 in Calm     55 % 0.00 in
11:10 33.7 °F 18.4 °F 30.33 in SSW 2.2 mph 6.9 mph 53 % 0.00 in
11:15 34.0 °F 18.2 °F 30.33 in SSW 1.8 mph 6.9 mph 52 % 0.00 in
11:20 34.3 °F 18.0 °F 30.33 in SE 2.6 mph 8.1 mph 51 % 0.00 in
11:25 34.7 °F 18.9 °F 30.33 in South 2.9 mph 3.5 mph 52 % 0.00 in
11:30 35.2 °F 18.4 °F 30.32 in WSW 1.1 mph 4.6 mph 50 % 0.00 in
11:35 35.5 °F 18.2 °F 30.32 in South 2.3 mph 4.6 mph 49 % 0.00 in
11:40 35.8 °F 19.0 °F 30.32 in Calm   3.5 mph 50 % 0.00 in
11:45 36.0 °F 18.2 °F 30.32 in WSW 6.6 mph 10.4 mph 48 % 0.00 in
11:50 36.0 °F 18.7 °F 30.32 in WSW 2.8 mph 4.6 mph 49 % 0.00 in
11:55 36.0 °F 18.2 °F 30.32 in SW 2.6 mph 5.8 mph 48 % 0.00 in
12:01 36.0 °F 19.1 °F 30.31 in SSW 5.6 mph 8.0 mph 50 % 0.00 in
12:06 35.8 °F 18.0 °F 30.31 in SSW 3.7 mph 6.9 mph 48 % 0.00 in
12:11 35.6 °F 18.3 °F 30.31 in South 4.5 mph 8.1 mph 49 % 0.00 in
12:16 35.5 °F 18.7 °F 30.30 in WSW 6.0 mph 9.2 mph 50 % 0.00 in
12:21 35.6 °F 19.2 °F 30.30 in SSE 4.9 mph 8.1 mph 51 % 0.00 in
12:26 35.5 °F 19.1 °F 30.29 in South 5.0 mph 8.1 mph 51 % 0.00 in
12:31 35.5 °F 19.1 °F 30.29 in SW 7.3 mph 11.5 mph 51 % 0.00 in
12:36 35.5 °F 20.0 °F 30.29 in SW 2.1 mph 4.6 mph 53 % 0.00 in
12:41 35.6 °F 20.6 °F 30.28 in South 4.8 mph 8.1 mph 54 % 0.00 in
12:46 35.7 °F 21.1 °F 30.28 in SSW 4.5 mph 6.9 mph 55 % 0.00 in
12:51 35.8 °F 20.3 °F 30.27 in SW 3.6 mph 6.0 mph 53 % 0.00 in
12:56 35.7 °F 20.7 °F 30.27 in SSE 3.6 mph 5.8 mph 54 % 0.00 in
13:01 35.7 °F 20.7 °F 30.27 in SSW 4.0 mph 5.8 mph 54 % 0.00 in
13:06 35.7 °F 20.7 °F 30.26 in SSW 3.2 mph 7.0 mph 54 % 0.00 in
13:11 35.6 °F 20.6 °F 30.26 in SSW 2.1 mph 4.6 mph 54 % 0.00 in
13:16 35.5 °F 20.5 °F 30.26 in South 3.4 mph 8.0 mph 54 % 0.00 in
13:21 35.5 °F 21.3 °F 30.26 in SSW 0.5 mph 3.5 mph 56 % 0.00 in
13:26 35.5 °F 21.3 °F 30.26 in SSW 4.6 mph 7.0 mph 56 % 0.00 in
13:31 35.4 °F 21.2 °F 30.26 in SSW 3.0 mph 5.0 mph 56 % 0.00 in
13:36 35.4 °F 21.7 °F 30.26 in SW 4.0 mph 10.4 mph 57 % 0.00 in
13:42 35.5 °F 21.3 °F 30.26 in SSW 5.1 mph 6.0 mph 56 % 0.00 in
13:47 35.4 °F 21.2 °F 30.26 in SSW 1.8 mph 4.6 mph 56 % 0.00 in
13:52 35.5 °F 21.8 °F 30.26 in SSW 2.8 mph 8.1 mph 57 % 0.00 in
13:57 35.5 °F 21.3 °F 30.25 in South 3.7 mph 5.8 mph 56 % 0.00 in
14:02 35.2 °F 21.5 °F 30.25 in South 1.8 mph 4.6 mph 57 % 0.00 in
14:07 35.3 °F 22.0 °F 30.25 in SSW 3.7 mph 5.8 mph 58 % 0.00 in
14:12 35.4 °F 22.1 °F 30.25 in West 4.9 mph 9.2 mph 58 % 0.00 in
14:17 35.5 °F 22.2 °F 30.25 in SSW 1.8 mph 4.0 mph 58 % 0.00 in
14:22 35.5 °F 21.8 °F 30.25 in SSW 2.2 mph 4.6 mph 57 % 0.00 in
14:27 35.5 °F 22.2 °F 30.25 in South 1.7 mph 3.5 mph 58 % 0.00 in
14:32 35.5 °F 22.2 °F 30.25 in South 3.1 mph 5.0 mph 58 % 0.00 in
14:37 35.4 °F 22.1 °F 30.24 in SSW 2.8 mph 5.8 mph 58 % 0.00 in
14:42 35.3 °F 22.0 °F 30.24 in SSW 5.6 mph 9.2 mph 58 % 0.00 in
14:47 35.2 °F 22.3 °F 30.24 in South 0.3 mph 4.6 mph 59 % 0.00 in
14:52 35.1 °F 22.2 °F 30.24 in SSE 3.2 mph 5.8 mph 59 % 0.00 in
14:57 35.0 °F 22.9 °F 30.24 in SSW 3.7 mph 6.0 mph 61 % 0.00 in
15:02 34.8 °F 22.7 °F 30.24 in SW 4.6 mph 5.8 mph 61 % 0.00 in
15:08 34.7 °F 22.6 °F 30.24 in South 3.9 mph 5.0 mph 61 % 0.00 in
15:13 34.4 °F 22.7 °F 30.24 in SSW 1.8 mph 5.8 mph 62 % 0.00 in
15:18 34.3 °F 22.6 °F 30.25 in SSW 2.6 mph 6.0 mph 62 % 0.00 in
15:23 34.1 °F 22.8 °F 30.25 in South 2.0 mph 4.6 mph 63 % 0.00 in
15:28 33.9 °F 22.6 °F 30.25 in South 5.3 mph 10.4 mph 63 % 0.00 in
15:33 33.7 °F 22.8 °F 30.25 in SSW 1.5 mph 5.8 mph 64 % 0.00 in
15:38 33.7 °F 22.8 °F 30.25 in SSW 4.6 mph 9.2 mph 64 % 0.00 in
15:43 33.5 °F 23.0 °F 30.24 in SSW 1.6 mph 5.8 mph 65 % 0.00 in
15:48 33.4 °F 23.3 °F 30.24 in SW 4.2 mph 7.0 mph 66 % 0.00 in
15:53 33.3 °F 23.2 °F 30.25 in West 4.2 mph 8.0 mph 66 % 0.00 in
15:57 33.3 °F 23.2 °F 30.25 in SW 4.1 mph 8.1 mph 66 % 0.00 in
16:02 33.2 °F 23.4 °F 30.25 in South 2.2 mph 4.0 mph 67 % 0.00 in
16:08 33.2 °F 23.4 °F 30.24 in South 4.2 mph 8.1 mph 67 % 0.00 in
16:13 33.1 °F 23.3 °F 30.24 in SSW 1.0 mph 4.6 mph 67 % 0.00 in
16:18 33.2 °F 23.8 °F 30.24 in South 3.3 mph 6.0 mph 68 % 0.00 in
16:23 33.2 °F 23.8 °F 30.24 in SSW 4.4 mph 7.0 mph 68 % 0.00 in
16:28 33.2 °F 23.8 °F 30.24 in SSW 4.3 mph 7.0 mph 68 % 0.00 in
16:33 33.1 °F 23.7 °F 30.23 in SSW 2.7 mph 5.8 mph 68 % 0.00 in
16:38 33.1 °F 23.7 °F 30.23 in SSE 1.9 mph 4.6 mph 68 % 0.00 in
16:43 33.1 °F 23.7 °F 30.23 in SSE 2.2 mph 5.8 mph 68 % 0.00 in
16:48 33.1 °F 23.7 °F 30.23 in South 3.9 mph 7.0 mph 68 % 0.00 in
16:53 33.0 °F 23.6 °F 30.23 in South 1.0 mph 4.0 mph 68 % 0.00 in
16:58 33.0 °F 23.6 °F 30.23 in South 3.1 mph 4.6 mph 68 % 0.00 in
17:03 33.0 °F 23.6 °F 30.23 in SSW 2.2 mph 11.5 mph 68 % 0.00 in
17:08 32.9 °F 23.5 °F 30.23 in SSW 1.9 mph 2.0 mph 68 % 0.00 in
17:13 32.9 °F 23.5 °F 30.23 in Calm   3.5 mph 68 % 0.00 in
17:18 32.9 °F 23.5 °F 30.23 in SW 4.9 mph 9.2 mph 68 % 0.00 in
17:23 32.9 °F 23.8 °F 30.23 in SSW 2.0 mph 6.9 mph 69 % 0.00 in
17:29 32.9 °F 23.8 °F 30.22 in South 1.0 mph 4.6 mph 69 % 0.00 in
17:34 32.9 °F 23.8 °F 30.23 in South 2.1 mph 4.6 mph 69 % 0.00 in
17:39 32.9 °F 24.2 °F 30.22 in SSW 0.3 mph 2.3 mph 70 % 0.00 in
17:44 32.9 °F 24.2 °F 30.22 in SSW 2.0 mph 3.5 mph 70 % 0.00 in
17:49 32.9 °F 24.2 °F 30.22 in SSE 0.5 mph 2.3 mph 70 % 0.00 in
17:54 32.9 °F 24.5 °F 30.21 in South 2.6 mph 4.6 mph 71 % 0.00 in
17:59 33.0 °F 24.6 °F 30.21 in SSE 1.7 mph 3.5 mph 71 % 0.00 in
18:04 33.0 °F 24.6 °F 30.21 in SE 1.9 mph 6.0 mph 71 % 0.00 in
18:09 33.0 °F 24.6 °F 30.22 in SSE 0.5 mph 2.3 mph 71 % 0.00 in
18:14 33.1 °F 25.1 °F 30.21 in Calm     72 % 0.00 in
18:19 33.1 °F 25.1 °F 30.22 in South 0.1 mph 1.2 mph 72 % 0.00 in
18:24 33.1 °F 25.1 °F 30.21 in SSW 0.4 mph 2.0 mph 72 % 0.00 in
18:29 33.2 °F 25.5 °F 30.21 in South 0.2 mph 1.2 mph 73 % 0.00 in
18:34 33.2 °F 25.5 °F 30.21 in South 2.4 mph 4.6 mph 73 % 0.00 in
18:39 33.2 °F 25.5 °F 30.21 in South 0.9 mph 3.5 mph 73 % 0.00 in
18:44 33.3 °F 25.9 °F 30.21 in SE 0.2 mph 1.0 mph 74 % 0.00 in
18:49 33.3 °F 25.9 °F 30.21 in South 0.4 mph 3.5 mph 74 % 0.00 in
18:54 33.4 °F 26.0 °F 30.21 in SE 0.9 mph 3.0 mph 74 % 0.00 in
19:00 33.4 °F 26.0 °F 30.21 in South 1.3 mph 3.5 mph 74 % 0.00 in
19:05 33.5 °F 26.1 °F 30.21 in South 1.0 mph 2.3 mph 74 % 0.00 in
19:10 33.5 °F 26.1 °F 30.21 in South 0.5 mph 3.5 mph 74 % 0.00 in
19:15 33.5 °F 26.4 °F 30.22 in SSW 2.3 mph 5.0 mph 75 % 0.00 in
19:20 33.5 °F 26.4 °F 30.22 in SSW 1.4 mph 3.5 mph 75 % 0.00 in
19:25 33.5 °F 26.4 °F 30.22 in SSW 0.5 mph 1.2 mph 75 % 0.00 in
19:30 33.5 °F 26.4 °F 30.22 in SSW 0.7 mph 3.5 mph 75 % 0.00 in
19:35 33.6 °F 26.8 °F 30.22 in South 1.7 mph 3.5 mph 76 % 0.00 in
19:40 33.6 °F 26.8 °F 30.22 in SW 1.4 mph 3.5 mph 76 % 0.00 in
19:45 33.7 °F 27.3 °F 30.21 in South 2.3 mph 4.6 mph 77 % 0.00 in
19:50 33.7 °F 27.3 °F 30.21 in SSW 0.7 mph 3.5 mph 77 % 0.00 in
19:55 33.8 °F 27.4 °F 30.22 in SSW 1.0 mph 3.5 mph 77 % 0.00 in
20:00 33.8 °F 27.4 °F 30.22 in SSW 1.5 mph 4.0 mph 77 % 0.00 in
20:05 33.9 °F 27.8 °F 30.21 in SSW 2.6 mph 3.5 mph 78 % 0.00 in
20:10 33.9 °F 27.8 °F 30.20 in SSW 0.9 mph 2.0 mph 78 % 0.00 in
20:15 34.0 °F 27.9 °F 30.20 in SSE 2.4 mph 6.9 mph 78 % 0.00 in
20:20 34.1 °F 28.3 °F 30.20 in SSW 1.9 mph 4.6 mph 79 % 0.00 in
20:23 34.1 °F 28.3 °F 30.20 in Calm   2.3 mph 79 % 0.00 in
20:28 34.2 °F 28.4 °F 30.20 in SSE 0.7 mph 4.6 mph 79 % 0.00 in
20:34 34.2 °F 28.4 °F 30.20 in SE 0.9 mph 1.2 mph 79 % 0.00 in
20:39 34.3 °F 28.5 °F 30.20 in SSE 0.1 mph 1.2 mph 79 % 0.00 in
20:44 34.3 °F 28.5 °F 30.21 in South 0.6 mph 3.5 mph 79 % 0.00 in
20:49 34.3 °F 28.5 °F 30.21 in South 0.2 mph 1.2 mph 79 % 0.00 in
20:54 34.3 °F 28.5 °F 30.21 in SSW 1.3 mph 4.0 mph 79 % 0.00 in
20:59 34.4 °F 28.6 °F 30.21 in SSW 0.3 mph 2.3 mph 79 % 0.00 in
21:04 34.4 °F 28.9 °F 30.20 in SSW 1.9 mph 3.5 mph 80 % 0.00 in
21:09 34.5 °F 29.0 °F 30.20 in Calm   1.2 mph 80 % 0.00 in
21:14 34.5 °F 29.0 °F 30.20 in SSW 1.2 mph 2.3 mph 80 % 0.00 in
21:19 34.6 °F 29.4 °F 30.20 in Calm     81 % 0.00 in
21:24 34.6 °F 29.1 °F 30.20 in Calm     80 % 0.00 in
21:29 34.7 °F 29.2 °F 30.19 in Calm   1.2 mph 80 % 0.00 in
21:34 34.7 °F 29.2 °F 30.19 in Calm     80 % 0.00 in
21:39 34.8 °F 29.6 °F 30.18 in SSE 0.3 mph 2.3 mph 81 % 0.00 in
21:44 34.8 °F 29.6 °F 30.18 in SSE 1.0 mph 2.0 mph 81 % 0.00 in
21:49 34.9 °F 29.7 °F 30.18 in Calm     81 % 0.00 in
21:54 34.9 °F 29.7 °F 30.19 in SSW 1.2 mph 2.0 mph 81 % 0.00 in
22:00 35.0 °F 29.8 °F 30.19 in South 0.6 mph 4.6 mph 81 % 0.00 in
22:05 35.0 °F 30.1 °F 30.18 in South 0.7 mph 4.0 mph 82 % 0.00 in
22:10 35.0 °F 30.1 °F 30.18 in Calm   2.3 mph 82 % 0.00 in
22:15 35.1 °F 30.2 °F 30.18 in South 1.1 mph 3.5 mph 82 % 0.00 in
22:20 35.1 °F 30.2 °F 30.18 in SSW 1.6 mph 3.5 mph 82 % 0.00 in
22:25 35.2 °F 30.6 °F 30.18 in SSW 2.3 mph 3.5 mph 83 % 0.00 in
22:30 35.3 °F 30.7 °F 30.17 in South 2.1 mph 5.8 mph 83 % 0.00 in
22:35 35.5 °F 30.8 °F 30.17 in South 1.1 mph 2.3 mph 83 % 0.00 in
22:40 35.5 °F 30.8 °F 30.17 in South 1.5 mph 4.6 mph 83 % 0.00 in
22:45 35.5 °F 30.8 °F 30.17 in SSW 0.8 mph 4.0 mph 83 % 0.00 in
22:50 35.6 °F 31.2 °F 30.18 in South 2.1 mph 3.5 mph 84 % 0.00 in
22:55 35.6 °F 31.2 °F 30.17 in South 2.3 mph 3.5 mph 84 % 0.00 in
23:00 35.7 °F 31.3 °F 30.17 in SSW 1.5 mph 3.5 mph 84 % 0.00 in
23:05 35.7 °F 31.3 °F 30.16 in SSW 1.2 mph 2.3 mph 84 % 0.00 in
23:10 35.7 °F 31.6 °F 30.16 in South 2.0 mph 4.0 mph 85 % 0.00 in
23:15 35.8 °F 31.7 °F 30.17 in South 0.9 mph 3.5 mph 85 % 0.00 in
23:20 35.8 °F 31.7 °F 30.17 in South 2.0 mph 5.0 mph 85 % 0.00 in
23:25 35.9 °F 31.8 °F 30.17 in SSW 1.0 mph 4.0 mph 85 % 0.00 in
23:30 35.9 °F 31.8 °F 30.17 in Calm   1.0 mph 85 % 0.00 in
23:36 35.9 °F 31.8 °F 30.17 in Calm   5.0 mph 85 % 0.00 in
23:40 35.9 °F 31.8 °F 30.17 in SW 1.0 mph 3.0 mph 85 % 0.00 in
23:45 35.9 °F 31.8 °F 30.17 in Calm   3.0 mph 85 % 0.00 in
23:50 35.9 °F 31.8 °F 30.16 in Calm     85 % 0.00 in
23:55 35.9 °F 31.8 °F 30.16 in Calm     85 % 0.00 in
Crab Meadow Weather
Compliments of Weather Underground - 3 mb

Script developed by  Jim McMurry - jmcmurry@mwt.net Adapted for the template by  Wim van der Kuil - Leuven-Template.eu

Recycling: Out of every $10 spent buying things, $1 (10%) goes for packaging that is thrown away. Packaging represents about 65% of household trash.